createdAt,value
2018-07-08T00:01:52.419Z,63.90
2018-07-08T00:04:21.637Z,63.90
2018-07-08T00:06:54.960Z,63.80
2018-07-08T00:09:24.160Z,64.10
2018-07-08T00:11:53.457Z,64.20
2018-07-08T00:14:22.648Z,64.10
2018-07-08T00:16:51.846Z,64.50
2018-07-08T00:19:21.056Z,64.90
2018-07-08T00:21:50.281Z,64.00
2018-07-08T00:24:19.478Z,63.30
2018-07-08T00:26:48.678Z,63.80
2018-07-08T00:29:17.875Z,63.80
2018-07-08T00:31:47.119Z,64.40
2018-07-08T00:34:16.312Z,64.40
2018-07-08T00:36:45.509Z,64.60
2018-07-08T00:39:14.709Z,64.80
2018-07-08T00:41:43.980Z,64.20
2018-07-08T00:44:13.241Z,64.20
2018-07-08T00:46:42.440Z,64.50
2018-07-08T00:49:11.896Z,64.30
2018-07-08T00:51:41.179Z,64.20
2018-07-08T00:54:10.371Z,64.10
2018-07-08T00:56:39.568Z,63.90
2018-07-08T00:59:08.756Z,64.30
2018-07-08T01:01:38.032Z,63.80
2018-07-08T01:04:07.290Z,63.40
2018-07-08T01:06:36.459Z,63.20
2018-07-08T01:09:06.516Z,63.10
2018-07-08T01:11:35.781Z,63.50
2018-07-08T01:14:05.084Z,64.00
2018-07-08T01:16:34.348Z,63.40
2018-07-08T01:19:03.553Z,64.80
2018-07-08T01:21:32.773Z,65.20
2018-07-08T01:24:02.020Z,65.30
2018-07-08T01:26:31.236Z,65.70
2018-07-08T01:29:00.414Z,66.80
2018-07-08T01:31:29.667Z,66.80
2018-07-08T01:33:58.912Z,66.80
2018-07-08T01:36:28.132Z,66.90
2018-07-08T01:38:57.330Z,66.60
2018-07-08T01:41:26.560Z,66.70
2018-07-08T01:43:55.770Z,67.00
2018-07-08T01:46:25.171Z,66.90
2018-07-08T01:48:54.463Z,66.60
2018-07-08T01:51:23.773Z,66.50
2018-07-08T01:53:53.165Z,66.40
2018-07-08T01:56:22.375Z,66.40
2018-07-08T02:01:20.392Z,66.20
2018-07-08T02:03:49.623Z,66.20
2018-07-08T02:06:18.862Z,66.00
2018-07-08T02:08:48.256Z,66.40
2018-07-08T02:11:17.552Z,66.40
2018-07-08T02:13:46.744Z,66.70
2018-07-08T02:16:15.956Z,66.60
2018-07-08T02:18:45.643Z,66.70
2018-07-08T02:21:15.025Z,67.10
2018-07-08T02:23:44.257Z,67.00
2018-07-08T02:26:13.457Z,67.20
2018-07-08T02:28:42.657Z,67.40
2018-07-08T02:31:11.856Z,67.60
2018-07-08T02:33:41.057Z,67.50
2018-07-08T02:36:10.243Z,67.60
2018-07-08T02:38:39.440Z,67.40
2018-07-08T02:41:08.699Z,66.40
2018-07-08T02:43:37.897Z,65.80
2018-07-08T02:46:07.289Z,66.30
2018-07-08T02:48:36.487Z,67.40
2018-07-08T02:51:05.891Z,66.50
2018-07-08T02:53:35.228Z,67.40
2018-07-08T02:56:04.418Z,66.60
2018-07-08T02:58:33.617Z,66.20
2018-07-08T03:01:02.852Z,65.50
2018-07-08T03:03:32.048Z,65.10
2018-07-08T03:06:01.249Z,66.10
2018-07-08T03:08:30.437Z,66.80
2018-07-08T03:10:59.637Z,66.30
2018-07-08T03:13:28.833Z,66.20
2018-07-08T03:15:58.036Z,66.50
2018-07-08T03:18:27.234Z,66.30
2018-07-08T03:20:56.432Z,66.30
2018-07-08T03:23:26.086Z,67.00
2018-07-08T03:25:55.364Z,65.90
2018-07-08T03:28:24.537Z,66.70
2018-07-08T03:30:53.814Z,67.10
2018-07-08T03:33:23.262Z,67.00
2018-07-08T03:35:52.483Z,67.20
2018-07-08T03:38:21.916Z,67.20
2018-07-08T03:40:51.107Z,67.20
2018-07-08T03:43:20.513Z,67.10
2018-07-08T03:45:49.708Z,66.60
2018-07-08T03:48:18.905Z,66.90
2018-07-08T03:50:48.079Z,66.30
2018-07-08T03:53:17.259Z,67.20
2018-07-08T03:55:46.677Z,67.80
2018-07-08T03:58:16.004Z,68.00
2018-07-08T04:00:45.177Z,67.80
2018-07-08T04:03:14.336Z,67.80
2018-07-08T04:05:43.536Z,67.90
2018-07-08T04:08:12.741Z,68.40
2018-07-08T04:10:41.937Z,67.90
2018-07-08T04:13:11.135Z,67.90
2018-07-08T04:15:40.398Z,68.00
2018-07-08T04:18:10.213Z,68.10
2018-07-08T04:20:40.227Z,68.10
2018-07-08T04:23:09.728Z,68.10
2018-07-08T04:25:39.082Z,68.30
2018-07-08T04:28:08.812Z,68.50
2018-07-08T04:30:38.244Z,68.60
2018-07-08T04:33:07.606Z,68.40
2018-07-08T04:35:37.672Z,68.70
2018-07-08T04:38:07.780Z,69.20
2018-07-08T04:40:37.625Z,69.20
2018-07-08T04:43:07.557Z,69.20
2018-07-08T04:45:36.843Z,69.00
2018-07-08T04:48:06.117Z,68.60
2018-07-08T04:50:35.368Z,68.40
2018-07-08T04:53:04.769Z,68.40
2018-07-08T04:55:34.067Z,68.40
2018-07-08T05:00:32.458Z,68.70
2018-07-08T05:03:01.924Z,68.50
2018-07-08T05:05:31.231Z,68.50
2018-07-08T05:08:00.541Z,68.90
2018-07-08T05:10:29.825Z,69.10
2018-07-08T05:12:59.178Z,70.00
2018-07-08T05:15:28.449Z,69.40
2018-07-08T05:17:57.744Z,69.00
2018-07-08T05:20:27.095Z,68.50
2018-07-08T05:22:56.453Z,68.60
2018-07-08T05:25:25.801Z,68.80
2018-07-08T05:27:55.180Z,69.20
2018-07-08T05:30:24.470Z,70.30
2018-07-08T05:32:54.172Z,69.80
2018-07-08T05:35:23.550Z,69.50
2018-07-08T05:37:52.907Z,69.90
2018-07-08T05:40:22.212Z,70.40
2018-07-08T05:42:51.572Z,69.80
2018-07-08T05:45:20.901Z,69.50
2018-07-08T05:47:50.196Z,69.60
2018-07-08T05:50:19.516Z,69.30
2018-07-08T05:52:48.891Z,70.20
2018-07-08T05:55:18.273Z,69.80
2018-07-08T05:57:47.537Z,69.70
2018-07-08T06:00:16.856Z,69.40
2018-07-08T06:02:46.200Z,69.50
2018-07-08T06:05:15.475Z,69.30
2018-07-08T06:07:44.861Z,69.70
2018-07-08T06:10:14.164Z,69.50
2018-07-08T06:12:43.497Z,69.00
2018-07-08T06:15:12.843Z,69.30
2018-07-08T06:17:42.128Z,69.20
2018-07-08T06:20:12.242Z,69.10
2018-07-08T06:22:41.655Z,70.20
2018-07-08T06:25:10.958Z,70.00
2018-07-08T06:27:40.234Z,69.70
2018-07-08T06:30:09.585Z,69.70
2018-07-08T06:32:38.964Z,69.60
2018-07-08T06:35:09.528Z,69.30
2018-07-08T06:37:38.850Z,69.90
2018-07-08T06:40:08.459Z,69.00
2018-07-08T06:42:37.956Z,68.80
2018-07-08T06:45:07.266Z,68.80
2018-07-08T06:47:43.257Z,68.70
2018-07-08T06:50:12.558Z,68.50
2018-07-08T06:52:41.936Z,68.50
2018-07-08T06:55:11.268Z,68.30
2018-07-08T06:57:40.637Z,68.30
2018-07-08T07:00:09.945Z,68.20
2018-07-08T07:07:36.949Z,68.10
2018-07-08T07:10:06.998Z,68.00
2018-07-08T07:12:36.492Z,68.00
2018-07-08T07:15:06.340Z,67.90
2018-07-08T07:17:35.686Z,67.80
2018-07-08T07:20:05.041Z,67.80
2018-07-08T07:22:34.460Z,67.70
2018-07-08T07:25:03.822Z,67.70
2018-07-08T07:27:33.072Z,67.90
2018-07-08T07:30:02.339Z,67.80
2018-07-08T07:32:31.649Z,67.70
2018-07-08T07:35:00.942Z,67.70
2018-07-08T07:37:30.351Z,67.90
2018-07-08T07:39:59.552Z,67.70
2018-07-08T07:42:29.301Z,67.80
2018-07-08T07:44:58.728Z,67.80
2018-07-08T07:47:28.000Z,67.70
2018-07-08T07:49:57.236Z,67.70
2018-07-08T07:52:26.527Z,68.50
2018-07-08T07:54:55.829Z,67.60
2018-07-08T07:57:25.147Z,67.70
2018-07-08T07:59:54.449Z,67.70
2018-07-08T08:02:26.506Z,67.70
2018-07-08T08:04:56.660Z,67.70
2018-07-08T08:07:27.267Z,67.90
2018-07-08T08:09:57.545Z,68.10
2018-07-08T08:12:27.300Z,68.20
2018-07-08T08:14:56.929Z,68.30
2018-07-08T08:17:26.929Z,68.30
2018-07-08T08:19:56.183Z,68.30
2018-07-08T08:22:25.569Z,68.30
2018-07-08T08:24:54.831Z,68.30
2018-07-08T08:27:24.137Z,68.40
2018-07-08T08:29:53.489Z,68.30
2018-07-08T08:32:22.908Z,68.10
2018-07-08T08:35:23.371Z,68.80
2018-07-08T08:37:55.459Z,68.10
2018-07-08T08:40:26.329Z,68.10
2018-07-08T08:42:56.551Z,68.00
2018-07-08T08:45:27.917Z,68.10
2018-07-08T08:47:58.062Z,68.50
2018-07-08T08:50:27.402Z,68.60
2018-07-08T08:52:56.845Z,68.60
2018-07-08T08:55:26.337Z,68.70
2018-07-08T08:57:55.647Z,68.90
2018-07-08T09:00:24.924Z,68.70
2018-07-08T09:02:54.373Z,68.80
2018-07-08T09:05:23.766Z,69.00
2018-07-08T09:07:53.216Z,69.10
2018-07-08T09:10:22.539Z,69.00
2018-07-08T09:12:51.860Z,68.80
2018-07-08T09:15:21.544Z,68.80
2018-07-08T09:17:50.873Z,68.80
2018-07-08T09:20:20.352Z,68.70
2018-07-08T09:22:49.856Z,68.70
2018-07-08T09:25:19.234Z,68.60
2018-07-08T09:27:48.599Z,68.60
2018-07-08T09:30:17.913Z,68.70
2018-07-08T09:32:47.297Z,68.80
2018-07-08T09:35:16.709Z,68.80
2018-07-08T09:40:15.232Z,68.90
2018-07-08T09:42:44.744Z,69.20
2018-07-08T09:45:14.149Z,69.20
2018-07-08T09:47:43.573Z,69.30
2018-07-08T09:50:12.949Z,69.20
2018-07-08T09:52:42.666Z,69.20
2018-07-08T09:55:12.001Z,69.20
2018-07-08T09:57:41.415Z,69.30
2018-07-08T10:00:10.801Z,69.40
2018-07-08T10:02:40.150Z,69.40
2018-07-08T10:05:09.472Z,69.40
2018-07-08T10:07:38.824Z,69.40
2018-07-08T10:10:08.145Z,69.40
2018-07-08T10:12:37.591Z,69.30
2018-07-08T10:15:06.933Z,69.20
2018-07-08T10:17:36.370Z,69.20
2018-07-08T10:20:06.841Z,69.20
2018-07-08T10:22:36.274Z,69.40
2018-07-08T10:25:05.622Z,70.30
2018-07-08T10:27:58.590Z,70.30
2018-07-08T10:30:28.008Z,71.00
2018-07-08T10:35:36.995Z,70.20
2018-07-08T10:38:06.625Z,70.10
2018-07-08T10:40:35.912Z,70.20
2018-07-08T10:43:05.331Z,70.20
2018-07-08T10:45:34.642Z,70.00
2018-07-08T10:48:04.014Z,70.40
2018-07-08T10:50:34.298Z,71.80
2018-07-08T10:53:03.708Z,72.20
2018-07-08T10:55:33.233Z,72.30
2018-07-08T10:58:02.529Z,72.40
2018-07-08T11:00:31.902Z,72.00
2018-07-08T11:03:01.299Z,72.20
2018-07-08T11:05:30.707Z,72.00
2018-07-08T11:08:00.195Z,71.90
2018-07-08T11:12:58.437Z,72.40
2018-07-08T11:15:27.806Z,71.70
2018-07-08T11:17:57.156Z,72.20
2018-07-08T11:20:26.610Z,71.90
2018-07-08T11:22:56.417Z,71.90
2018-07-08T11:25:25.683Z,72.30
2018-07-08T11:27:55.008Z,72.40
2018-07-08T11:30:24.348Z,72.80
2018-07-08T11:32:53.692Z,72.70
2018-07-08T11:37:51.775Z,72.60
2018-07-08T11:42:50.044Z,72.50
2018-07-08T11:45:20.158Z,72.50
2018-07-08T11:47:49.500Z,72.40
2018-07-08T11:50:18.752Z,72.30
2018-07-08T11:52:48.140Z,72.20
2018-07-08T11:55:17.845Z,72.20
2018-07-08T11:57:47.331Z,72.10
2018-07-08T12:00:16.838Z,72.10
2018-07-08T12:02:46.196Z,72.00
2018-07-08T12:05:15.469Z,72.00
2018-07-08T12:07:44.768Z,72.00
2018-07-08T12:10:14.103Z,71.90
2018-07-08T12:12:43.536Z,71.90
2018-07-08T12:15:12.989Z,71.80
2018-07-08T12:17:42.375Z,71.70
2018-07-08T12:20:11.774Z,71.70
2018-07-08T12:22:41.226Z,71.60
2018-07-08T12:25:10.564Z,71.60
2018-07-08T12:27:39.955Z,71.50
2018-07-08T12:30:09.302Z,71.60
2018-07-08T12:32:38.800Z,71.60
2018-07-08T12:35:08.051Z,71.50
2018-07-08T12:37:37.353Z,71.50
2018-07-08T12:40:06.708Z,71.60
2018-07-08T12:42:36.101Z,71.60
2018-07-08T12:45:05.587Z,71.50
2018-07-08T12:47:35.653Z,71.40
2018-07-08T12:50:05.784Z,71.40
2018-07-08T12:52:35.235Z,71.30
2018-07-08T12:55:04.534Z,71.30
2018-07-08T12:57:34.585Z,71.30
2018-07-08T13:00:04.291Z,71.30
2018-07-08T13:02:34.020Z,71.40
2018-07-08T13:05:03.561Z,71.40
2018-07-08T13:07:33.408Z,71.20
2018-07-08T13:10:02.781Z,70.90
2018-07-08T13:12:32.176Z,70.80
2018-07-08T13:15:01.469Z,70.90
2018-07-08T13:17:30.895Z,71.20
2018-07-08T13:20:00.302Z,71.10
2018-07-08T13:22:29.655Z,71.00
2018-07-08T13:24:58.938Z,70.90
2018-07-08T13:27:28.573Z,70.80
2018-07-08T13:29:57.944Z,71.00
2018-07-08T13:32:28.074Z,70.80
2018-07-08T13:37:27.485Z,70.80
2018-07-08T13:40:03.487Z,70.80
2018-07-08T13:42:33.821Z,70.70
2018-07-08T13:45:03.818Z,70.70
2018-07-08T13:47:34.013Z,71.60
2018-07-08T13:50:03.766Z,71.80
2018-07-08T13:52:33.194Z,71.80
2018-07-08T13:55:02.515Z,71.70
2018-07-08T13:57:31.771Z,71.80
2018-07-08T14:00:01.058Z,71.80
2018-07-08T14:02:30.528Z,72.00
2018-07-08T14:04:59.834Z,71.90
2018-07-08T14:07:29.440Z,71.90
2018-07-08T14:09:58.756Z,71.90
2018-07-08T14:12:28.149Z,71.80
2018-07-08T14:14:57.379Z,71.90
2018-07-08T14:17:26.632Z,71.90
2018-07-08T14:19:55.940Z,71.90
2018-07-08T14:22:26.103Z,71.80
2018-07-08T14:24:55.376Z,71.90
2018-07-08T14:27:24.647Z,71.80
2018-07-08T14:29:54.090Z,71.80
2018-07-08T14:32:23.658Z,71.70
2018-07-08T14:34:53.030Z,71.70
2018-07-08T14:37:22.330Z,72.40
2018-07-08T14:39:51.660Z,71.60
2018-07-08T14:42:21.016Z,71.60
2018-07-08T14:44:50.323Z,71.50
2018-07-08T14:47:19.633Z,71.40
2018-07-08T14:49:49.006Z,71.40
2018-07-08T14:52:18.374Z,71.50
2018-07-08T14:54:47.654Z,71.50
2018-07-08T14:57:17.070Z,71.30
2018-07-08T14:59:46.439Z,71.40
2018-07-08T15:02:15.905Z,71.40
2018-07-08T15:04:45.256Z,71.40
2018-07-08T15:07:14.963Z,71.40
2018-07-08T15:09:44.345Z,71.20
2018-07-08T15:12:15.438Z,71.30
2018-07-08T15:14:45.020Z,71.20
2018-07-08T15:17:14.333Z,71.20
2018-07-08T15:19:43.613Z,71.30
2018-07-08T15:22:12.954Z,71.20
2018-07-08T15:24:42.316Z,71.20
2018-07-08T15:27:11.614Z,71.20
2018-07-08T15:29:41.316Z,71.10
2018-07-08T15:32:10.743Z,71.10
2018-07-08T15:34:40.195Z,71.10
2018-07-08T15:37:09.532Z,71.00
2018-07-08T15:39:38.812Z,71.10
2018-07-08T15:42:08.161Z,71.20
2018-07-08T15:44:37.477Z,71.10
2018-07-08T15:47:06.956Z,70.80
2018-07-08T15:49:36.335Z,70.80
2018-07-08T15:52:05.704Z,70.60
2018-07-08T15:54:34.995Z,70.60
2018-07-08T15:57:04.305Z,70.60
2018-07-08T15:59:33.634Z,70.50
2018-07-08T16:02:03.005Z,70.50
2018-07-08T16:04:32.310Z,70.50
2018-07-08T16:07:01.706Z,70.40
2018-07-08T16:09:31.116Z,70.40
2018-07-08T16:12:02.358Z,70.40
2018-07-08T16:14:31.873Z,70.30
2018-07-08T16:17:01.477Z,70.30
2018-07-08T16:19:30.814Z,70.30
2018-07-08T16:22:02.344Z,70.30
2018-07-08T16:24:32.438Z,70.20
2018-07-08T16:27:02.013Z,70.20
2018-07-08T16:29:32.115Z,70.20
2018-07-08T16:32:02.215Z,70.30
2018-07-08T16:34:31.831Z,70.80
2018-07-08T16:37:01.685Z,70.70
2018-07-08T16:39:31.022Z,70.40
2018-07-08T16:42:00.404Z,70.30
2018-07-08T16:44:30.103Z,70.40
2018-07-08T16:46:59.532Z,70.40
2018-07-08T16:49:28.855Z,70.40
2018-07-08T16:51:58.235Z,70.50
2018-07-08T16:56:56.499Z,70.50
2018-07-08T16:59:25.888Z,70.50
2018-07-08T17:01:55.213Z,70.50
2018-07-08T17:04:24.565Z,70.50
2018-07-08T17:06:53.921Z,70.50
2018-07-08T17:09:23.262Z,70.40
2018-07-08T17:11:52.707Z,70.50
2018-07-08T17:14:22.032Z,70.40
2018-07-08T17:16:51.808Z,70.30
2018-07-08T17:19:21.402Z,70.30
2018-07-08T17:21:50.784Z,70.30
2018-07-08T17:24:20.153Z,70.30
2018-07-08T17:26:49.476Z,71.00
2018-07-08T17:29:18.768Z,71.60
2018-07-08T17:31:48.268Z,70.90
2018-07-08T17:34:17.657Z,70.70
2018-07-08T17:36:46.925Z,70.20
2018-07-08T17:39:16.269Z,70.20
2018-07-08T17:41:45.677Z,70.20
2018-07-08T17:44:14.961Z,70.30
2018-07-08T17:46:44.287Z,70.30
2018-07-08T17:49:13.642Z,70.10
2018-07-08T17:51:43.021Z,70.20
2018-07-08T17:54:12.277Z,70.00
2018-07-08T17:56:41.863Z,70.10
2018-07-08T17:59:11.149Z,70.00
2018-07-08T18:01:40.560Z,70.00
2018-07-08T18:04:09.836Z,69.60
2018-07-08T18:06:39.101Z,69.30
2018-07-08T18:09:08.455Z,69.70
2018-07-08T18:11:37.835Z,69.70
2018-07-08T18:14:07.426Z,69.60
2018-07-08T18:16:36.686Z,69.70
2018-07-08T18:19:06.353Z,69.60
2018-07-08T18:21:35.806Z,69.60
2018-07-08T18:24:05.420Z,69.60
2018-07-08T18:26:34.740Z,69.60
2018-07-08T18:31:32.932Z,69.60
2018-07-08T18:34:02.240Z,69.60
2018-07-08T18:36:32.235Z,69.60
2018-07-08T18:41:30.745Z,69.60
2018-07-08T18:44:00.041Z,69.60
2018-07-08T18:46:30.447Z,68.90
2018-07-08T18:49:00.218Z,69.60
2018-07-08T18:51:30.120Z,69.60
2018-07-08T18:54:00.544Z,69.70
2018-07-08T18:56:29.973Z,69.70
2018-07-08T18:58:59.285Z,69.80
2018-07-08T19:01:28.661Z,70.10
2018-07-08T19:03:57.929Z,70.10
2018-07-08T19:06:27.196Z,70.50
2018-07-08T19:08:56.809Z,70.60
2018-07-08T19:11:26.249Z,70.90
2018-07-08T19:13:55.562Z,70.70
2018-07-08T19:16:24.961Z,70.70
2018-07-08T19:18:54.434Z,70.90
2018-07-08T19:21:23.868Z,70.80
2018-07-08T19:23:53.221Z,70.90
2018-07-08T19:26:22.651Z,70.90
2018-07-08T19:28:52.257Z,70.90
2018-07-08T19:31:21.762Z,70.80
2018-07-08T19:33:51.167Z,70.80
2018-07-08T19:36:20.458Z,70.80
2018-07-08T19:38:49.760Z,70.80
2018-07-08T19:41:19.348Z,70.80
2018-07-08T19:43:48.656Z,70.70
2018-07-08T19:46:18.020Z,70.40
2018-07-08T19:48:47.512Z,69.80
2018-07-08T19:51:17.040Z,69.70
2018-07-08T19:53:47.159Z,69.20
2018-07-08T19:56:16.573Z,69.00
2018-07-08T19:58:46.395Z,68.70
2018-07-08T20:01:15.826Z,69.00
2018-07-08T20:03:45.160Z,68.50
2018-07-08T20:06:14.576Z,69.00
2018-07-08T20:08:43.887Z,67.60
2018-07-08T20:11:13.176Z,62.90
2018-07-08T20:13:42.375Z,63.50
2018-07-08T20:16:11.604Z,63.20
2018-07-08T20:18:40.809Z,62.40
2018-07-08T20:21:10.281Z,62.30
2018-07-08T20:23:39.863Z,62.60
2018-07-08T20:26:10.052Z,61.60
2018-07-08T20:28:39.246Z,61.30
2018-07-08T20:31:08.619Z,61.70
2018-07-08T20:33:37.936Z,61.60
2018-07-08T20:36:07.304Z,60.50
2018-07-08T20:38:36.910Z,59.50
2018-07-08T20:41:06.521Z,59.90
2018-07-08T20:43:36.155Z,59.60
2018-07-08T20:46:05.456Z,58.90
2018-07-08T20:48:34.688Z,58.70
2018-07-08T20:51:03.975Z,58.40
2018-07-08T20:53:33.164Z,57.80
2018-07-08T20:56:04.267Z,58.40
2018-07-08T20:58:33.469Z,58.70
2018-07-08T21:01:04.207Z,58.90
2018-07-08T21:03:33.783Z,58.20
2018-07-08T21:06:03.013Z,58.50
2018-07-08T21:08:32.205Z,58.80
2018-07-08T21:11:01.481Z,58.80
2018-07-08T21:13:30.734Z,59.20
2018-07-08T21:15:59.984Z,59.00
2018-07-08T21:18:29.236Z,59.10
2018-07-08T21:20:58.477Z,59.40
2018-07-08T21:23:27.697Z,60.30
2018-07-08T21:25:56.932Z,59.50
2018-07-08T21:28:26.133Z,59.40
2018-07-08T21:30:55.322Z,59.20
2018-07-08T21:33:24.556Z,59.90
2018-07-08T21:35:54.276Z,59.50
2018-07-08T21:38:23.476Z,59.90
2018-07-08T21:40:52.696Z,59.80
2018-07-08T21:43:21.885Z,60.10
2018-07-08T21:45:51.130Z,60.40
2018-07-08T21:48:20.329Z,60.50
2018-07-08T21:50:49.520Z,61.10
2018-07-08T21:53:18.770Z,61.80
2018-07-08T21:55:47.947Z,61.70
2018-07-08T21:58:17.371Z,61.70
2018-07-08T22:00:57.253Z,61.70
2018-07-08T22:03:26.445Z,61.90
2018-07-08T22:05:56.125Z,61.90
2018-07-08T22:08:29.423Z,62.10
2018-07-08T22:10:58.717Z,62.80
2018-07-08T22:13:27.941Z,62.90
2018-07-08T22:15:57.140Z,62.80
2018-07-08T22:18:26.329Z,62.90
2018-07-08T22:20:56.597Z,62.80
2018-07-08T22:23:25.788Z,62.10
2018-07-08T22:25:54.996Z,62.40
2018-07-08T22:28:24.285Z,61.60
2018-07-08T22:30:53.488Z,62.50
2018-07-08T22:33:22.680Z,61.60
2018-07-08T22:35:51.910Z,61.50
2018-07-08T22:38:21.183Z,62.00
2018-07-08T22:40:50.380Z,61.80
2018-07-08T22:43:19.576Z,61.90
2018-07-08T22:45:48.776Z,61.90
2018-07-08T22:48:17.976Z,62.30
2018-07-08T22:50:47.172Z,61.70
2018-07-08T22:53:16.367Z,61.50
2018-07-08T22:55:45.564Z,61.30
2018-07-08T22:58:14.760Z,61.70
2018-07-08T23:00:54.964Z,61.20
2018-07-08T23:03:56.353Z,61.70
2018-07-08T23:06:25.548Z,61.90
2018-07-08T23:08:55.428Z,62.00
2018-07-08T23:11:25.385Z,61.80
2018-07-08T23:13:55.695Z,62.00
2018-07-08T23:16:25.708Z,62.10
2018-07-08T23:18:54.912Z,62.60
2018-07-08T23:21:24.138Z,62.80
2018-07-08T23:23:53.313Z,62.60
2018-07-08T23:26:22.505Z,62.40
2018-07-08T23:28:51.745Z,62.50
2018-07-08T23:31:21.036Z,62.10
2018-07-08T23:33:50.228Z,61.90
2018-07-08T23:36:19.424Z,62.80
2018-07-08T23:38:48.637Z,63.00
2018-07-08T23:41:18.280Z,63.10
2018-07-08T23:43:47.456Z,63.10
2018-07-08T23:48:45.313Z,63.20
2018-07-08T23:51:14.512Z,63.30
2018-07-08T23:53:43.718Z,63.70
2018-07-08T23:56:12.915Z,63.50
2018-07-08T23:58:42.084Z,63.30
